Data for 06/06/2017

Time Sea-Level Adjusted Pressure Absolute Pressure Temperature Relative Humidity Dew Point   
(mb) (inHg) (mb) (inHg) (C) (F) (%) (C) (F)
00:05 1024 30.24 853 25.19 12.6 54.7 59 4.8 40.7
00:10 1024 30.24 853 25.19 12.6 54.6 59 4.9 40.8
00:15 1024 30.24 853 25.19 12.5 54.5 58 4.6 40.4
00:20 1024 30.24 853 25.19 12.5 54.5 59 4.7 40.4
00:25 1024 30.24 853 25.19 12.5 54.4 59 4.6 40.3
00:30 1024 30.24 853 25.19 12.5 54.4 59 4.7 40.4
00:35 1024 30.24 853 25.19 12.3 54.1 59 4.7 40.4
00:40 1024 30.24 853 25.19 12.2 54 59 4.6 40.3
00:45 1024 30.24 853 25.19 12.2 54 60 4.7 40.4
00:50 1024 30.24 853 25.19 12.1 53.8 60 4.6 40.2
00:55 1024 30.24 853 25.19 12.1 53.8 60 4.5 40.2
01:00 1024 30.24 853 25.19 12.1 53.7 60 4.6 40.3
01:05 1024 30.24 853 25.19 12 53.5 61 4.6 40.4
01:10 1024 30.24 853 25.19 11.9 53.5 61 4.6 40.3
01:15 1024 30.24 853 25.19 11.9 53.5 61 4.7 40.4
01:20 1024 30.24 853 25.19 12 53.5 61 4.7 40.5
01:25 1024 30.24 853 25.19 11.9 53.4 62 4.8 40.7
01:30 1024 30.24 853 25.19 11.8 53.2 62 4.8 40.6
01:35 1024 30.24 853 25.19 11.8 53.2 62 4.8 40.7
01:40 1024 30.24 853 25.19 11.8 53.2 62 4.9 40.7
01:45 1024 30.24 853 25.19 11.7 53.1 62 4.8 40.7
01:50 1024 30.24 854 25.22 11.7 53 63 4.9 40.8
01:55 1024 30.24 854 25.22 11.6 53 63 4.8 40.7
02:00 1024 30.24 853 25.19 11.6 53 63 4.8 40.7
02:05 1024 30.24 853 25.19 11.6 52.9 63 4.8 40.6
02:10 1024 30.24 853 25.19 11.6 52.9 63 4.8 40.6
02:15 1024 30.24 853 25.19 11.5 52.8 63 4.7 40.5
02:20 1024 30.24 853 25.19 11.5 52.7 63 4.8 40.6
02:25 1024 30.24 853 25.19 11.5 52.6 63 4.8 40.6
02:30 1024 30.24 853 25.19 11.4 52.6 63 4.7 40.5
02:35 1024 30.24 853 25.19 11.4 52.6 63 4.7 40.5
02:40 1024 30.24 853 25.19 11.4 52.5 64 4.8 40.6
02:45 1024 30.24 853 25.19 11.3 52.4 64 4.8 40.6
02:50 1024 30.24 853 25.19 11.3 52.3 64 4.8 40.6
02:55 1024 30.24 853 25.19 11.2 52.2 64 4.7 40.4
03:00 1024 30.24 853 25.19 11.2 52.2 64 4.7 40.4
03:05 1024 30.24 853 25.19 11.2 52.1 64 4.7 40.4
03:10 1024 30.24 853 25.19 11.2 52.1 64 4.6 40.4
03:15 1024 30.24 853 25.19 11.1 52 64 4.5 40.2
03:20 1024 30.24 853 25.19 11.1 52 64 4.6 40.2
03:25 1024 30.24 854 25.22 11 51.9 64 4.6 40.3
03:30 1024 30.24 854 25.22 11 51.8 64 4.6 40.2
03:35 1024 30.24 854 25.22 10.9 51.7 65 4.5 40.2
03:40 1025 30.27 854 25.22 10.9 51.6 64 4.5 40
03:45 1024 30.24 854 25.22 10.9 51.6 65 4.5 40.2
03:50 1024 30.24 854 25.22 10.8 51.5 64 4.4 39.9
03:55 1025 30.27 854 25.22 10.8 51.5 65 4.5 40.1
04:00 1025 30.27 854 25.22 10.8 51.4 65 4.4 39.9
04:05 1025 30.27 854 25.22 10.7 51.3 65 4.4 39.9
04:10 1025 30.27 854 25.22 10.8 51.4 64 4.4 39.9
04:15 1025 30.27 854 25.22 10.7 51.3 65 4.4 39.9
04:20 1025 30.27 854 25.22 10.7 51.3 64 4.3 39.7
04:25 1025 30.27 854 25.22 10.7 51.3 64 4.3 39.8
04:30 1025 30.27 854 25.22 10.7 51.2 64 4.3 39.7
04:35 1025 30.27 854 25.22 10.6 51.1 64 4.2 39.6
04:40 1025 30.27 854 25.22 10.6 51.1 65 4.3 39.7
04:45 1025 30.27 854 25.22 10.6 51 65 4.2 39.6
04:50 1025 30.27 854 25.22 10.5 50.9 65 4.3 39.7
04:55 1025 30.27 854 25.22 10.5 50.9 65 4.1 39.4
05:00 1025 30.27 854 25.22 10.5 50.8 65 4.3 39.7
05:05 1025 30.27 854 25.22 10.4 50.7 65 4.2 39.5
05:10 1025 30.27 854 25.22 10.3 50.6 66 4.3 39.7
05:15 1025 30.27 854 25.22 10.3 50.6 65 4.1 39.5
05:20 1025 30.27 854 25.22 10.3 50.5 65 4.1 39.3
05:25 1025 30.27 854 25.22 10.4 50.7 65 4.2 39.5
05:30 1025 30.27 854 25.22 10.3 50.6 65 4.2 39.5
05:35 1025 30.27 854 25.22 10.3 50.5 66 4.2 39.6
05:40 1025 30.27 854 25.22 10.3 50.5 66 4.2 39.5
05:45 1025 30.27 854 25.22 10.2 50.4 65 4 39.3
05:50 1025 30.27 854 25.22 10.2 50.4 65 4 39.2
05:55 1025 30.27 854 25.22 10.3 50.5 65 4 39.2
06:00 1025 30.27 854 25.22 10.3 50.5 65 4 39.3
06:05 1025 30.27 854 25.22 10.3 50.6 65 4.1 39.4
06:10 1025 30.27 854 25.22 10.4 50.7 65 4.2 39.5
06:15 1025 30.27 854 25.22 10.4 50.8 65 4.2 39.5
06:20 1025 30.27 854 25.22 10.5 50.8 65 4.1 39.4
06:25 1025 30.27 854 25.22 10.5 50.9 65 4.2 39.5
06:30 1025 30.27 854 25.22 10.6 51.1 65 4.2 39.6
06:35 1025 30.27 854 25.22 10.6 51.1 65 4.3 39.7
06:40 1025 30.27 854 25.22 10.6 51.1 65 4.3 39.7
06:45 1025 30.27 854 25.22 10.7 51.3 64 4.3 39.8
06:50 1025 30.27 854 25.22 10.8 51.4 64 4.4 39.9
06:55 1025 30.27 854 25.22 10.9 51.5 64 4.3 39.7
07:00 1025 30.27 854 25.22 10.9 51.7 64 4.4 39.9
07:05 1025 30.27 854 25.22 11.1 51.9 63 4.4 39.9
07:10 1025 30.27 854 25.22 11.2 52.2 63 4.4 40
07:15 1025 30.27 854 25.22 11.3 52.3 63 4.5 40.1
07:20 1025 30.27 854 25.22 11.4 52.5 62 4.4 39.9
07:25 1025 30.27 854 25.22 11.6 52.8 62 4.6 40.2
07:30 1025 30.27 854 25.22 11.8 53.2 61 4.6 40.2
07:35 1025 30.27 854 25.22 11.9 53.5 61 4.7 40.5
07:40 1025 30.27 854 25.22 12.1 53.8 60 4.5 40.2
07:45 1025 30.27 854 25.22 12.3 54.2 59 4.6 40.3
07:50 1025 30.27 854 25.22 12.4 54.4 58 4.4 39.9
07:55 1025 30.27 854 25.22 12.6 54.7 58 4.6 40.2
08:00 1025 30.27 854 25.22 12.6 54.7 57 4.5 40.1
08:05 1025 30.27 854 25.22 12.7 54.8 56 4.2 39.6
08:10 1025 30.27 854 25.22 12.8 55 57 4.5 40.1
08:15 1025 30.27 854 25.22 13 55.4 56 4.5 40
08:20 1025 30.27 854 25.22 13.1 55.6 56 4.5 40.1
08:25 1025 30.27 854 25.22 13.2 55.8 55 4.5 40.1
08:30 1025 30.27 854 25.22 13.4 56.2 55 4.5 40.2
08:35 1025 30.27 854 25.22 13.6 56.5 53 4.4 39.9
08:40 1025 30.27 854 25.22 13.7 56.7 54 4.6 40.2
08:45 1025 30.27 854 25.22 13.7 56.7 54 4.5 40.2
08:50 1025 30.27 854 25.22 13.8 56.8 54 4.6 40.3
08:55 1025 30.27 854 25.22 13.9 57.1 53 4.5 40
09:00 1025 30.27 854 25.22 14 57.3 53 4.6 40.3
09:05 1025 30.27 854 25.22 14.1 57.3 53 4.8 40.7
09:10 1025 30.27 854 25.22 14 57.2 53 4.6 40.4
09:15 1025 30.27 854 25.22 14.4 57.8 52 4.7 40.4
09:20 1025 30.27 854 25.22 15 59 50 4.8 40.6
09:25 1025 30.27 854 25.22 14.8 58.6 51 4.8 40.6
09:30 1025 30.27 854 25.22 14.9 58.8 50 4.8 40.6
09:35 1025 30.27 854 25.22 15 59 50 4.7 40.5
09:40 1025 30.27 854 25.22 15.2 59.3 50 4.8 40.7
09:45 1025 30.27 854 25.22 15.1 59.1 49 4.7 40.4
09:50 1025 30.27 854 25.22 14.9 58.8 51 4.9 40.8
09:55 1025 30.27 854 25.22 15.6 60 47 4.5 40.1
10:00 1025 30.27 854 25.22 15.6 60.1 49 4.9 40.9
10:05 1024 30.24 854 25.22 15.6 60.1 48 4.7 40.5
10:10 1024 30.24 854 25.22 15.6 60 48 4.6 40.3
10:15 1024 30.24 854 25.22 15.8 60.4 47 4.7 40.5
10:20 1024 30.24 854 25.22 16 60.7 48 4.9 40.9
10:25 1024 30.24 854 25.22 15.9 60.7 46 4.5 40.1
10:30 1024 30.24 853 25.19 16.3 61.3 47 4.9 40.8
10:35 1024 30.24 853 25.19 16.1 60.9 47 5 41
10:40 1024 30.24 853 25.19 16.1 60.9 47 4.9 40.9
10:45 1024 30.24 853 25.19 16.1 61.1 46 4.8 40.6
10:50 1024 30.24 853 25.19 15.9 60.7 48 4.9 40.9
10:55 1024 30.24 853 25.19 16.2 61.1 48 5.3 41.6
11:00 1024 30.24 853 25.19 16.4 61.6 47 5.1 41.1
11:05 1024 30.24 853 25.19 16.5 61.7 46 5 41
11:10 1024 30.24 853 25.19 16.7 62.1 46 5.3 41.5
11:15 1024 30.24 853 25.19 16.9 62.5 45 5.1 41.2
11:20 1024 30.24 853 25.19 17 62.5 47 5.7 42.3
11:25 1024 30.24 853 25.19 17 62.6 46 5.3 41.5
11:30 1024 30.24 853 25.19 16.9 62.5 46 5.4 41.8
11:35 1024 30.24 853 25.19 17.4 63.3 45 5.4 41.7
11:40 1024 30.24 853 25.19 17.2 63 46 5.7 42.3
11:45 1024 30.24 853 25.19 17.2 62.9 46 5.6 42
11:50 1024 30.24 853 25.19 17.1 62.8 44 5 41
11:55 1024 30.24 853 25.19 17.5 63.5 46 5.8 42.4
12:00 1024 30.24 853 25.19 17.3 63.2 45 5.5 41.9
12:05 1024 30.24 853 25.19 17.7 63.8 44 5.4 41.7
12:10 1024 30.24 853 25.19 18.2 64.8 43 5.6 42.1
12:15 1024 30.24 853 25.19 18.1 64.7 43 5.6 42.2
12:20 1024 30.24 853 25.19 18.2 64.7 43 5.4 41.7
12:25 1023 30.21 853 25.19 18.1 64.6 42 5.2 41.4
12:30 1023 30.21 853 25.19 18.3 65 43 5.6 42.1
12:35 1023 30.21 853 25.19 18.6 65.5 43 5.8 42.4
12:40 1023 30.21 853 25.19 18.7 65.6 41 5.3 41.5
12:45 1023 30.21 853 25.19 18.6 65.5 42 5.5 41.8
12:50 1023 30.21 853 25.19 18.9 65.9 41 5.6 42
12:55 1023 30.21 852 25.16 18.7 65.7 41 5.5 41.8
13:00 1023 30.21 852 25.16 18.9 65.9 43 6 42.8
13:05 1023 30.21 852 25.16 19.5 67.1 41 5.9 42.7
13:10 1023 30.21 852 25.16 19.4 66.8 41 5.9 42.7
13:15 1023 30.21 852 25.16 19 66.2 41 5.6 42.1
13:20 1023 30.21 852 25.16 18.9 66.1 41 5.5 41.9
13:25 1023 30.21 852 25.16 19.2 66.5 40 5.5 41.8
13:30 1023 30.21 852 25.16 19.3 66.7 40 5.3 41.6
13:35 1023 30.21 852 25.16 19.5 67.1 39 5.5 41.8
13:40 1023 30.21 852 25.16 19.8 67.7 38 5.3 41.5
13:45 1023 30.21 852 25.16 19.7 67.4 39 5.6 42
13:50 1023 30.21 852 25.16 19.4 66.9 39 5.3 41.5
13:55 1023 30.21 852 25.16 19.5 67.2 40 5.6 42.1
14:00 1022 30.18 852 25.16 19.7 67.5 38 5.1 41.1
14:05 1022 30.18 852 25.16 20 68 38 5.5 41.9
14:10 1022 30.18 852 25.16 19.7 67.5 38 5.1 41.2
14:15 1022 30.18 852 25.16 20.4 68.7 36 4.9 40.9
14:20 1022 30.18 851 25.13 20.5 68.9 35 4.6 40.4
14:25 1022 30.18 851 25.13 20.3 68.5 36 4.7 40.5
14:30 1022 30.18 851 25.13 20.2 68.3 37 5.1 41.1
14:35 1022 30.18 851 25.13 20.5 69 34 4.3 39.7
14:40 1022 30.18 851 25.13 20.3 68.5 37 5.2 41.4
14:45 1022 30.18 851 25.13 20.7 69.2 35 5 41
14:50 1022 30.18 851 25.13 20.4 68.7 35 4.6 40.3
14:55 1022 30.18 851 25.13 20.4 68.7 36 4.9 40.8
15:00 1022 30.18 851 25.13 20.4 68.7 36 4.8 40.7
15:05 1022 30.18 851 25.13 20.6 69 35 4.8 40.6
15:10 1022 30.18 851 25.13 20.3 68.6 35 4.6 40.3
15:15 1022 30.18 851 25.13 20.3 68.5 36 4.9 40.8
15:20 1022 30.18 851 25.13 20.5 68.9 34 4.3 39.8
15:25 1022 30.18 851 25.13 20.5 68.9 36 5.1 41.1
15:30 1022 30.18 851 25.13 20.6 69 34 4.3 39.7
15:35 1022 30.18 851 25.13 20.4 68.7 36 4.9 40.9
15:40 1022 30.18 851 25.13 20.8 69.5 34 4.6 40.3
15:45 1022 30.18 851 25.13 20.7 69.3 35 4.9 40.9
15:50 1021 30.15 851 25.13 20.8 69.4 36 5.2 41.4
15:55 1021 30.15 851 25.13 21.2 70.1 33 4.6 40.3
16:00 1021 30.15 851 25.13 20.9 69.6 34 4.7 40.5
16:05 1021 30.15 851 25.13 20.8 69.5 36 5.4 41.7
16:10 1021 30.15 851 25.13 20.4 68.7 38 5.6 42.1
16:15 1021 30.15 851 25.13 20.3 68.6 37 5.5 41.9
16:20 1021 30.15 851 25.13 20.3 68.5 38 5.5 41.9
16:25 1021 30.15 851 25.13 20 68.1 38 5.5 41.8
16:30 1021 30.15 850 25.1 20 67.9 38 5.5 42
16:35 1021 30.15 851 25.13 20 68 38 5.4 41.6
16:40 1021 30.15 850 25.1 20 68 38 5.6 42
16:45 1021 30.15 850 25.1 19.9 67.7 39 5.7 42.2
16:50 1021 30.15 850 25.1 19.9 67.9 38 5.5 41.9
16:55 1021 30.15 850 25.1 20.2 68.4 38 5.5 41.9
17:00 1021 30.15 850 25.1 20.1 68.2 38 5.7 42.2
17:05 1021 30.15 850 25.1 20 67.9 38 5.5 42
17:10 1021 30.15 850 25.1 20 67.9 39 5.6 42.1
17:15 1021 30.15 850 25.1 20.1 68.2 38 5.6 42.1
17:20 1021 30.15 850 25.1 20.2 68.3 39 5.8 42.5
17:25 1021 30.15 850 25.1 20.2 68.4 38 5.5 42
17:30 1021 30.15 850 25.1 20.3 68.6 38 5.8 42.4
17:35 1021 30.15 850 25.1 20.4 68.8 37 5.5 42
17:40 1021 30.15 850 25.1 20.3 68.5 37 5.3 41.6
17:45 1021 30.15 850 25.1 20.1 68.1 38 5.5 41.9
17:50 1021 30.15 850 25.1 20.1 68.2 37 5.2 41.4
17:55 1021 30.15 850 25.1 20.3 68.6 37 5.3 41.5
18:00 1021 30.15 850 25.1 20.4 68.6 38 5.6 42.1
18:05 1021 30.15 850 25.1 20.3 68.5 38 5.6 42.2
18:10 1021 30.15 850 25.1 20.2 68.3 38 5.5 41.9
18:15 1021 30.15 850 25.1 20.1 68.1 38 5.3 41.5
18:20 1021 30.15 850 25.1 20 68.1 38 5.3 41.6
18:25 1021 30.15 850 25.1 20 67.9 37 5.1 41.2
18:30 1021 30.15 850 25.1 19.8 67.6 38 5.2 41.3
18:35 1021 30.15 850 25.1 19.7 67.4 38 5.1 41.2
18:40 1021 30.15 850 25.1 19.7 67.4 38 4.9 40.9
18:45 1021 30.15 850 25.1 19.6 67.2 38 5.2 41.3
18:50 1021 30.15 850 25.1 19.5 67 39 5.3 41.5
18:55 1021 30.15 850 25.1 19.4 67 40 5.5 41.9
19:00 1021 30.15 850 25.1 19.4 66.9 40 5.7 42.2
19:05 1021 30.15 850 25.1 19.3 66.7 40 5.4 41.7
19:10 1021 30.15 850 25.1 19.2 66.5 39 4.9 40.9
19:15 1021 30.15 850 25.1 19 66.2 40 5.3 41.6
19:20 1021 30.15 850 25.1 19 66.1 40 5.3 41.5
19:25 1021 30.15 850 25.1 18.9 66 40 5.2 41.4
19:30 1021 30.15 850 25.1 18.8 65.8 42 5.6 42.1
19:35 1021 30.15 850 25.1 18.7 65.7 42 5.7 42.3
19:40 1021 30.15 850 25.1 18.7 65.6 43 5.8 42.4
19:45 1021 30.15 850 25.1 18.6 65.5 43 5.9 42.6
19:50 1021 30.15 850 25.1 18.5 65.4 44 6 42.9
19:55 1021 30.15 850 25.1 18.6 65.4 43 6 42.8
20:00 1021 30.15 850 25.1 18.6 65.5 43 5.9 42.7
20:05 1021 30.15 850 25.1 18.5 65.3 44 6.2 43.2
20:10 1021 30.15 850 25.1 18.3 65 45 6.2 43.2
20:15 1021 30.15 850 25.1 18.2 64.8 45 6.2 43.1
20:20 1021 30.15 850 25.1 18.1 64.6 46 6.3 43.4
20:25 1021 30.15 850 25.1 18.1 64.5 45 6.2 43.2
20:30 1021 30.15 850 25.1 18 64.3 46 6.3 43.4
20:35 1021 30.15 850 25.1 17.8 64.1 46 6.2 43.2
20:40 1021 30.15 850 25.1 17.7 63.8 47 6.4 43.5
20:45 1021 30.15 850 25.1 17.6 63.6 47 6.4 43.5
20:50 1021 30.15 850 25.1 17.4 63.4 48 6.3 43.4
20:55 1021 30.15 850 25.1 17.4 63.3 48 6.3 43.4
21:00 1021 30.15 850 25.1 17.3 63.1 48 6.4 43.5
21:05 1021 30.15 850 25.1 17.2 62.9 48 6.3 43.3
21:10 1021 30.15 850 25.1 17.1 62.8 49 6.3 43.4
21:15 1021 30.15 850 25.1 17 62.6 49 6.3 43.4
21:20 1021 30.15 850 25.1 16.9 62.4 50 6.4 43.5
21:25 1021 30.15 850 25.1 16.7 62.1 50 6.4 43.4
21:30 1021 30.15 850 25.1 16.6 61.9 51 6.4 43.5
21:35 1021 30.15 850 25.1 16.5 61.7 51 6.3 43.4
21:40 1021 30.15 851 25.13 16.4 61.6 51 6.3 43.3
21:45 1021 30.15 851 25.13 16.4 61.4 51 6.2 43.2
21:50 1021 30.15 851 25.13 16.3 61.3 51 6.3 43.4
21:55 1021 30.15 851 25.13 16.3 61.3 51 6.3 43.3
22:00 1021 30.15 851 25.13 16.2 61.2 51 6.3 43.3
22:05 1021 30.15 851 25.13 16.1 61.1 51 6.2 43.2
22:10 1021 30.15 851 25.13 16.1 61 51 6.2 43.1
22:15 1021 30.15 851 25.13 16.1 61 51 6 42.9
22:20 1021 30.15 851 25.13 16.1 61 51 6.2 43.1
22:25 1021 30.15 851 25.13 16 60.9 51 6 42.9
22:30 1022 30.18 851 25.13 16 60.9 51 6.1 42.9
22:35 1021 30.15 851 25.13 16 60.8 51 6 42.8
22:40 1021 30.15 851 25.13 16 60.7 51 6 42.8
22:45 1021 30.15 851 25.13 15.9 60.6 52 6 42.8
22:50 1021 30.15 851 25.13 15.9 60.5 51 5.9 42.7
22:55 1021 30.15 851 25.13 15.9 60.5 51 5.8 42.5
23:00 1021 30.15 851 25.13 15.9 60.6 51 5.8 42.5
23:05 1021 30.15 851 25.13 15.8 60.5 51 5.9 42.6
23:10 1022 30.18 851 25.13 15.8 60.4 51 5.8 42.4
23:15 1022 30.18 851 25.13 15.7 60.3 51 5.8 42.4
23:20 1022 30.18 851 25.13 15.7 60.3 51 5.8 42.4
23:25 1022 30.18 851 25.13 15.7 60.2 52 5.8 42.5
23:30 1022 30.18 851 25.13 15.6 60.1 51 5.7 42.3
23:35 1022 30.18 851 25.13 15.7 60.2 51 5.7 42.3
23:40 1022 30.18 851 25.13 15.7 60.2 51 5.7 42.2
23:45 1022 30.18 851 25.13 15.7 60.2 51 5.8 42.4
23:50 1022 30.18 851 25.13 15.6 60.1 51 5.6 42.2
23:55 1022 30.18 851 25.13 15.6 60.1 51 5.6 42.1
24:00 1022 30.18 851 25.13 15.6 60 52 5.8 42.4